Terminal Aerodrome Forecast
Issued by NWS

Home | Current Version | Previous Version | Text Only | Print | Product List | Glossary On
Versions: 1 2 3 4 5 6 7 8 9 10 11 12 13 14 15 16 17 18 19 20 21 22
000
FTUS41 KRLX 031120
TAFCKB
TAF
KCKB 031120Z 0312/0412 08003KT 6SM BR BKN070
     FM031700 12004KT 6SM SHRA VCTS OVC045CB
     FM031900 09004KT 3SM TSRA OVC025CB
     FM032200 06004KT 5SM SHRA BR VCTS OVC015CB
     FM040200 11004KT 5SM SHRA BR OVC030
     FM040600 19003KT 4SM BR BKN015=

USA.gov is the U.S. government's official web portal to all federal, state and local government web resources and services.